createdAt,value
2024-05-09T12:32:53.102Z,51641.39
2024-05-09T12:35:25.858Z,51634.96
2024-05-09T12:37:58.120Z,51642.60
2024-05-09T12:40:36.927Z,51643.40
2024-05-09T12:43:11.395Z,51651.04
2024-05-09T12:45:44.082Z,51633.76
2024-05-09T12:48:15.879Z,51639.78
2024-05-09T12:50:47.772Z,51630.14
2024-05-09T12:53:19.911Z,51641.39
2024-05-09T12:55:56.879Z,51626.13
2024-05-09T12:58:32.091Z,51617.29
2024-05-09T13:01:03.691Z,51606.04
2024-05-09T13:03:33.994Z,51603.22
2024-05-09T13:06:06.023Z,51603.22
2024-05-09T13:08:37.661Z,51590.77
2024-05-09T13:11:09.800Z,51603.63
2024-05-09T13:13:41.945Z,51610.05
2024-05-09T13:16:13.977Z,51604.02
2024-05-09T13:18:45.883Z,51610.05
2024-05-09T13:21:20.379Z,51611.66
2024-05-09T13:23:52.101Z,51620.10
2024-05-09T13:26:23.895Z,51618.89
2024-05-09T13:28:56.081Z,51609.25
2024-05-09T13:31:28.008Z,51619.70
2024-05-09T13:33:59.789Z,51616.88
2024-05-09T13:36:31.960Z,51644.61
2024-05-09T13:39:03.871Z,51625.72
2024-05-09T13:41:35.741Z,51638.18
2024-05-09T13:44:06.164Z,51657.06
2024-05-09T13:46:37.830Z,51629.74
2024-05-09T13:49:10.758Z,51647.42
2024-05-09T13:51:44.063Z,51642.60
2024-05-09T13:54:18.635Z,51644.61
2024-05-09T13:56:52.283Z,51638.59
2024-05-09T13:59:24.805Z,51650.63
2024-05-09T14:01:57.439Z,51640.19
2024-05-09T14:04:29.755Z,51627.33
2024-05-09T14:07:02.174Z,51635.77
2024-05-09T14:09:37.498Z,51620.50
2024-05-09T14:12:11.651Z,51619.70
2024-05-09T14:14:43.978Z,51647.42
2024-05-09T14:17:15.847Z,51648.63
2024-05-09T14:19:48.062Z,51651.04
2024-05-09T14:22:19.703Z,51661.48
2024-05-09T14:24:54.671Z,51650.64
2024-05-09T14:27:26.615Z,51652.24
2024-05-09T14:29:58.460Z,51658.27
2024-05-09T14:32:30.224Z,51627.73
2024-05-09T14:35:02.061Z,51654.65
2024-05-09T14:37:36.322Z,51644.61
2024-05-09T14:40:25.914Z,51655.05
2024-05-09T14:43:03.467Z,51677.15
2024-05-09T14:45:35.862Z,51661.48
2024-05-09T14:48:10.575Z,51677.96
2024-05-09T14:50:42.591Z,51698.85
2024-05-09T14:53:14.783Z,51681.57
2024-05-09T14:55:46.616Z,51693.63
2024-05-09T14:58:18.575Z,51672.33
2024-05-09T15:00:51.981Z,51666.71
2024-05-09T15:03:24.155Z,51662.69
2024-05-09T15:05:56.479Z,51676.75
2024-05-09T15:08:28.473Z,51673.13
2024-05-09T15:11:00.816Z,51677.96
2024-05-09T15:13:33.131Z,51662.29
2024-05-09T15:16:05.772Z,51649.43
2024-05-09T15:21:10.131Z,51653.04
2024-05-09T15:23:42.524Z,51663.89
2024-05-09T15:26:14.211Z,51674.34
2024-05-09T15:28:44.399Z,51672.73
2024-05-09T15:31:17.162Z,51669.52
2024-05-09T15:33:49.323Z,51653.45
2024-05-09T15:36:21.333Z,51662.69
2024-05-09T15:38:54.466Z,51659.07
2024-05-09T15:41:26.218Z,51667.91
2024-05-09T15:43:58.352Z,51657.46
2024-05-09T15:46:32.288Z,51654.25
2024-05-09T15:49:04.103Z,51676.35
2024-05-09T15:51:35.938Z,51675.95
2024-05-09T15:54:08.128Z,51675.54
2024-05-09T15:56:39.573Z,51691.22
2024-05-09T15:59:11.696Z,51693.63
2024-05-09T16:01:43.351Z,51703.67
2024-05-09T16:04:15.182Z,51681.57
2024-05-09T16:06:48.568Z,51693.23
2024-05-09T16:09:21.224Z,51699.66
2024-05-09T16:11:52.919Z,51696.44
2024-05-09T16:14:23.104Z,51699.25
2024-05-09T16:16:54.978Z,51689.61
2024-05-09T16:19:27.149Z,51688.80
2024-05-09T16:22:00.770Z,51698.85
2024-05-09T16:24:33.321Z,51714.52
2024-05-09T16:27:05.214Z,51703.27
2024-05-09T16:29:37.129Z,51709.30
2024-05-09T16:32:10.300Z,51713.32
2024-05-09T16:34:41.847Z,51725.37
2024-05-09T16:37:13.543Z,51727.38
2024-05-09T16:39:47.616Z,51725.37
2024-05-09T16:42:21.843Z,51733.01
2024-05-09T16:44:55.638Z,51734.21
2024-05-09T16:47:27.329Z,51748.68
2024-05-09T16:49:57.739Z,51758.32
2024-05-09T16:52:29.921Z,51749.48
2024-05-09T16:55:01.573Z,51774.39
2024-05-09T16:57:36.875Z,51759.13
2024-05-09T17:00:25.250Z,51760.32
2024-05-09T17:03:04.883Z,51779.21
2024-05-09T17:05:41.376Z,51782.83
2024-05-09T17:08:13.744Z,51787.25
2024-05-09T17:10:48.667Z,51779.62
2024-05-09T17:13:22.920Z,31078.46
2024-05-09T17:15:55.125Z,51784.44
2024-05-09T17:18:27.301Z,51793.27
2024-05-09T17:20:59.378Z,51803.32
2024-05-09T17:23:31.828Z,51810.16
2024-05-09T17:26:04.593Z,51789.26
2024-05-09T17:28:37.960Z,51800.51
2024-05-09T17:31:12.585Z,51802.92
2024-05-09T17:33:46.494Z,51816.18
2024-05-09T17:36:19.859Z,51804.13
2024-05-09T17:38:52.100Z,51821.00
2024-05-09T17:41:24.057Z,51821.00
2024-05-09T17:43:55.990Z,51828.23
2024-05-09T17:46:28.312Z,51809.35
2024-05-09T17:49:01.332Z,51827.43
2024-05-09T17:51:34.276Z,51808.54
2024-05-09T17:54:06.959Z,51827.83
2024-05-09T17:56:38.830Z,51823.82
2024-05-09T17:59:11.645Z,51812.56
2024-05-09T18:01:43.683Z,51828.23
2024-05-09T18:04:15.794Z,51833.06
2024-05-09T18:06:47.781Z,51814.57
2024-05-09T18:09:19.606Z,51843.50
2024-05-09T18:11:51.600Z,51816.58
2024-05-09T18:14:23.628Z,51835.06
2024-05-09T18:16:55.229Z,51825.82
2024-05-09T18:19:26.919Z,51822.61
2024-05-09T18:21:59.005Z,51834.26
2024-05-09T18:24:30.701Z,51825.02
2024-05-09T18:27:01.298Z,51826.23
2024-05-09T18:29:33.042Z,51853.15
2024-05-09T18:32:03.117Z,51833.05
2024-05-09T18:34:34.697Z,51841.50
2024-05-09T18:37:06.440Z,51847.52
2024-05-09T18:39:38.177Z,51829.44
2024-05-09T18:42:08.702Z,51839.49
2024-05-09T18:44:40.633Z,51823.41
2024-05-09T18:47:12.936Z,51833.06
2024-05-09T18:49:46.066Z,51838.68
2024-05-09T18:52:17.895Z,51837.48
2024-05-09T18:54:49.548Z,51843.51
2024-05-09T18:57:19.637Z,51839.49
2024-05-09T18:59:51.116Z,51831.05
2024-05-09T19:02:22.737Z,51849.93
2024-05-09T19:04:53.100Z,51839.49
2024-05-09T19:07:24.917Z,51851.14
2024-05-09T19:09:56.458Z,51866.81
2024-05-09T19:12:26.635Z,51859.98
2024-05-09T19:14:58.364Z,51846.71
2024-05-09T19:17:31.564Z,51849.93
2024-05-09T19:20:05.768Z,51856.36
2024-05-09T19:22:38.206Z,51847.92
2024-05-09T19:25:10.734Z,51857.57
2024-05-09T19:27:42.728Z,51839.49
2024-05-09T19:30:21.858Z,51844.30
2024-05-09T19:33:02.157Z,51845.91
2024-05-09T19:35:34.000Z,51848.73
2024-05-09T19:38:04.178Z,51842.30
2024-05-09T19:40:36.660Z,51859.18
2024-05-09T19:43:08.860Z,51841.50
2024-05-09T19:45:40.992Z,51846.32
2024-05-09T21:23:44.395Z,51899.36
2024-05-09T21:26:17.415Z,51919.05
2024-05-09T21:28:49.041Z,51915.83
2024-05-09T21:31:19.084Z,41510.21
2024-05-09T21:33:50.853Z,51912.62
2024-05-09T21:36:22.499Z,51918.24
2024-05-09T21:38:54.049Z,51898.15
2024-05-09T21:41:25.540Z,51891.72
2024-05-09T21:43:57.161Z,51902.17
2024-05-09T21:46:27.499Z,51902.17
2024-05-09T21:48:59.448Z,51902.57
2024-05-09T21:51:32.110Z,51923.46
2024-05-09T21:54:03.976Z,51914.23
2024-05-09T21:56:35.505Z,51900.96
2024-05-09T21:59:07.523Z,51898.15
2024-05-09T22:01:40.033Z,51895.74
2024-05-09T22:04:12.004Z,51895.34
2024-05-09T22:06:43.997Z,51909.00
2024-05-09T22:09:15.665Z,51909.80
2024-05-09T22:11:46.530Z,51917.84
2024-05-09T22:14:17.791Z,51916.23
2024-05-09T22:16:49.647Z,51927.49
2024-05-09T22:19:21.472Z,10374.89
2024-05-09T22:21:53.910Z,33792.88
2024-05-09T22:24:25.622Z,10384.13
2024-05-09T22:26:55.822Z,20770.07
2024-05-09T22:29:27.771Z,51925.88
2024-05-09T22:31:59.723Z,51913.82
2024-05-09T22:34:31.567Z,51926.28
2024-05-09T22:37:03.449Z,51926.68
2024-05-09T22:39:35.460Z,51916.64
2024-05-09T22:42:07.966Z,51919.45
2024-05-09T22:44:39.814Z,31149.58
2024-05-09T22:47:11.666Z,10385.74
2024-05-09T22:49:43.644Z,-1.00
2024-05-09T22:52:15.780Z,-1.00
2024-05-09T22:54:48.001Z,-1.00
2024-05-09T22:57:19.883Z,-1.00
2024-05-09T22:59:52.044Z,-1.00
2024-05-09T23:02:24.005Z,-1.00
2024-05-09T23:04:55.940Z,-1.00
2024-05-09T23:07:27.836Z,-1.00
2024-05-09T23:09:58.173Z,-1.00
2024-05-09T23:12:29.887Z,-1.00
2024-05-09T23:15:02.150Z,-1.00
2024-05-09T23:17:33.888Z,-1.00
2024-05-09T23:20:08.889Z,-1.00
2024-05-09T23:22:42.983Z,-1.00
2024-05-09T23:25:13.126Z,-1.00
2024-05-09T23:27:45.219Z,-1.00
2024-05-09T23:30:28.386Z,-1.00
2024-05-09T23:33:06.955Z,-1.00
2024-05-09T23:35:39.407Z,-1.00
2024-05-09T23:38:11.055Z,-1.00
2024-05-09T23:40:42.510Z,-1.00
2024-05-09T23:43:15.578Z,-1.00
2024-05-09T23:45:47.860Z,-1.00
2024-05-09T23:48:20.108Z,-1.00
2024-05-09T23:50:52.170Z,-1.00
2024-05-09T23:53:24.135Z,-1.00
2024-05-09T23:55:56.111Z,-1.00
2024-05-09T23:58:29.296Z,-1.00
